Aérodrome :
LOGIN :

S'inscrire | Disclaimer

   EN    FR    IT 

 










Légende :    VFR   VFR Marginal   IFR   IFR Intensif   IFR Très Intensif
Visi : 
Plafond : 
>= 8 km
>= 3000ft
5 à 8 km
1000 à 3000 ft
1500m à 5 km
500 à 1000 ft
800 à 1500m
200 à 500 ft
< 800m
< 200 ft
Symboles :   Orages  Brouillard  Fortes neiges  Fortes précipitations  Vent > 20 kt
SIGMETs :   Divers  Orages  Givrage  Turbulence  Onde Orograph.  Cendres Volcan.







- Altitude de l'aérodrome : 123 ft
- Code IATA : BLQ


LIPE - Bologna Guglielmo Marconi

DERNIER METAR :
  • 290650Z VRB02KT 5000 BR SCT008 20/18 Q1002

METARs EXPIRÉS :
  • 290620Z 36004KT 300V050 5000 BR SCT007 19/17 Q1002
  • 290550Z 04004KT 360V070 5000 BR SCT007 18/17 Q1001
  • 290520Z 27007KT 230V300 9999 FEW005 17/16 Q1001
  • 290450Z 31003KT 270V360 9999 FEW080 18/15 Q1001
  • 290420Z VRB02KT 9999 FEW080 17/15 Q1000

TAF TAF LIPE
Valide du 29 à 06h jusqu'au 30 à 06h UTC


290500Z 2906/3006 21015G25KT 9999 SCT030
BECMG 2918/2920 23008KT
Pas de NOTAMs connus pour ce terrain.
2 SIGMETs publiés pour la FIR Milano (LIMM) :
 
Turbulence forte
LIMM SIGMET 3 VALID 290700/291100 LIMM- LIMM MILANO FIR SEV TURB FCST S OF LINE N4332 E00758 - N4423 E01340 FL220/360 STNR NC=
Orages noyés dans la masse
LIMM SIGMET 2 VALID 290345/290745 LIMM- LIMM MILANO FIR EMBD TS OBS WI N4642 E01225 - N4552 E01025 - N4502 E01026 - N4556 E01340 - N4632 E01339 - N4642 E01225 TOP FL400 MOV NE NC=



MET'MAP, la Météo Aéronautique d'un coup d'oeil ! - Copyright ORBIFLY Décembre 2007 - Disclaimer

ORBIFLY MET'MAP TEAM :

Programmation & Développement : Alexandra Zaïnal
Conception & Développement : Baudouin d'Aumeries
Co-Programmation & Développement : Marc-Olivier Méhu
Soutien technique & logistique : Manuel Goepfert

Contact : metmap@orbifly.com




SOURCES & CREDITS :

   NOAA